sensor_id;sensor_type;location;lat;lon;timestamp;P1;P2;P0
51052;PMS5003;37093;37.716;-122.060;2023-07-16T00:02:19;7;7;
51052;PMS5003;37093;37.716;-122.060;2023-07-16T00:04:47;9;6;
51052;PMS5003;37093;37.716;-122.060;2023-07-16T00:07:16;10;9;
51052;PMS5003;37093;37.716;-122.060;2023-07-16T00:09:44;8;7;
51052;PMS5003;37093;37.716;-122.060;2023-07-16T00:12:13;8;8;
51052;PMS5003;37093;37.716;-122.060;2023-07-16T00:14:41;5;5;
51052;PMS5003;37093;37.716;-122.060;2023-07-16T00:17:10;6;6;
51052;PMS5003;37093;37.716;-122.060;2023-07-16T00:19:38;9;8;
51052;PMS5003;37093;37.716;-122.060;2023-07-16T00:22:07;8;6;
51052;PMS5003;37093;37.716;-122.060;2023-07-16T00:24:35;8;8;
51052;PMS5003;37093;37.716;-122.060;2023-07-16T00:27:04;9;9;
51052;PMS5003;37093;37.716;-122.060;2023-07-16T00:29:32;8;8;
51052;PMS5003;37093;37.716;-122.060;2023-07-16T00:32:00;8;8;
51052;PMS5003;37093;37.716;-122.060;2023-07-16T00:34:29;7;7;
51052;PMS5003;37093;37.716;-122.060;2023-07-16T00:36:57;7;7;
51052;PMS5003;37093;37.716;-122.060;2023-07-16T00:39:26;8;8;
51052;PMS5003;37093;37.716;-122.060;2023-07-16T00:41:54;12;10;
51052;PMS5003;37093;37.716;-122.060;2023-07-16T00:44:23;8;8;
51052;PMS5003;37093;37.716;-122.060;2023-07-16T00:46:51;11;9;
51052;PMS5003;37093;37.716;-122.060;2023-07-16T00:49:19;9;9;
51052;PMS5003;37093;37.716;-122.060;2023-07-16T00:51:48;8;8;
51052;PMS5003;37093;37.716;-122.060;2023-07-16T00:54:19;9;8;
51052;PMS5003;37093;37.716;-122.060;2023-07-16T00:56:47;7;7;
51052;PMS5003;37093;37.716;-122.060;2023-07-16T00:59:16;7;7;
51052;PMS5003;37093;37.716;-122.060;2023-07-16T01:01:44;9;9;
51052;PMS5003;37093;37.716;-122.060;2023-07-16T01:04:13;12;10;
51052;PMS5003;37093;37.716;-122.060;2023-07-16T01:06:42;9;9;
51052;PMS5003;37093;37.716;-122.060;2023-07-16T01:09:15;11;9;
51052;PMS5003;37093;37.716;-122.060;2023-07-16T01:11:44;11;10;
51052;PMS5003;37093;37.716;-122.060;2023-07-16T01:14:16;9;9;
51052;PMS5003;37093;37.716;-122.060;2023-07-16T01:16:45;8;6;
51052;PMS5003;37093;37.716;-122.060;2023-07-16T01:19:14;8;7;
51052;PMS5003;37093;37.716;-122.060;2023-07-16T01:21:43;7;6;
51052;PMS5003;37093;37.716;-122.060;2023-07-16T01:24:26;10;10;
51052;PMS5003;37093;37.716;-122.060;2023-07-16T01:27:21;8;8;
51052;PMS5003;37093;37.716;-122.060;2023-07-16T01:30:06;12;12;
51052;PMS5003;37093;37.716;-122.060;2023-07-16T01:32:39;9;9;
51052;PMS5003;37093;37.716;-122.060;2023-07-16T01:35:08;8;7;
51052;PMS5003;37093;37.716;-122.060;2023-07-16T01:37:38;8;7;
51052;PMS5003;37093;37.716;-122.060;2023-07-16T01:40:08;6;5;
51052;PMS5003;37093;37.716;-122.060;2023-07-16T01:42:36;8;7;
51052;PMS5003;37093;37.716;-122.060;2023-07-16T01:45:06;11;6;
51052;PMS5003;37093;37.716;-122.060;2023-07-16T01:47:35;6;6;
51052;PMS5003;37093;37.716;-122.060;2023-07-16T01:50:12;7;7;
51052;PMS5003;37093;37.716;-122.060;2023-07-16T01:52:40;7;7;
51052;PMS5003;37093;37.716;-122.060;2023-07-16T01:55:09;6;6;
51052;PMS5003;37093;37.716;-122.060;2023-07-16T01:57:37;6;5;
51052;PMS5003;37093;37.716;-122.060;2023-07-16T02:00:06;10;7;
51052;PMS5003;37093;37.716;-122.060;2023-07-16T02:02:35;10;8;
51052;PMS5003;37093;37.716;-122.060;2023-07-16T02:05:04;15;7;
51052;PMS5003;37093;37.716;-122.060;2023-07-16T02:07:33;8;6;
51052;PMS5003;37093;37.716;-122.060;2023-07-16T02:10:01;10;6;
51052;PMS5003;37093;37.716;-122.060;2023-07-16T02:12:30;7;7;
51052;PMS5003;37093;37.716;-122.060;2023-07-16T02:14:59;7;7;
51052;PMS5003;37093;37.716;-122.060;2023-07-16T02:17:27;8;8;
51052;PMS5003;37093;37.716;-122.060;2023-07-16T02:19:56;7;7;
51052;PMS5003;37093;37.716;-122.060;2023-07-16T02:22:25;9;6;
51052;PMS5003;37093;37.716;-122.060;2023-07-16T02:24:53;7;5;
51052;PMS5003;37093;37.716;-122.060;2023-07-16T02:27:23;7;7;
51052;PMS5003;37093;37.716;-122.060;2023-07-16T02:29:51;11;8;
51052;PMS5003;37093;37.716;-122.060;2023-07-16T02:32:20;8;8;
51052;PMS5003;37093;37.716;-122.060;2023-07-16T02:34:49;9;8;
51052;PMS5003;37093;37.716;-122.060;2023-07-16T02:37:17;7;7;
51052;PMS5003;37093;37.716;-122.060;2023-07-16T02:39:45;7;6;
51052;PMS5003;37093;37.716;-122.060;2023-07-16T02:42:14;12;8;
51052;PMS5003;37093;37.716;-122.060;2023-07-16T02:44:42;10;7;
51052;PMS5003;37093;37.716;-122.060;2023-07-16T02:47:11;10;7;
51052;PMS5003;37093;37.716;-122.060;2023-07-16T02:49:39;8;8;
51052;PMS5003;37093;37.716;-122.060;2023-07-16T02:52:08;12;10;
51052;PMS5003;37093;37.716;-122.060;2023-07-16T02:54:36;8;7;
51052;PMS5003;37093;37.716;-122.060;2023-07-16T02:57:05;7;7;
51052;PMS5003;37093;37.716;-122.060;2023-07-16T02:59:33;9;7;
51052;PMS5003;37093;37.716;-122.060;2023-07-16T03:02:02;9;8;
51052;PMS5003;37093;37.716;-122.060;2023-07-16T03:04:30;7;6;
51052;PMS5003;37093;37.716;-122.060;2023-07-16T03:06:59;8;5;
51052;PMS5003;37093;37.716;-122.060;2023-07-16T03:09:27;9;9;
51052;PMS5003;37093;37.716;-122.060;2023-07-16T03:11:56;8;8;
51052;PMS5003;37093;37.716;-122.060;2023-07-16T03:14:24;8;7;
51052;PMS5003;37093;37.716;-122.060;2023-07-16T03:16:53;8;7;
51052;PMS5003;37093;37.716;-122.060;2023-07-16T03:19:21;10;8;
51052;PMS5003;37093;37.716;-122.060;2023-07-16T03:21:50;11;9;
51052;PMS5003;37093;37.716;-122.060;2023-07-16T03:24:18;8;8;
51052;PMS5003;37093;37.716;-122.060;2023-07-16T03:26:46;9;8;
51052;PMS5003;37093;37.716;-122.060;2023-07-16T03:29:15;7;7;
51052;PMS5003;37093;37.716;-122.060;2023-07-16T03:31:43;9;7;
51052;PMS5003;37093;37.716;-122.060;2023-07-16T03:34:11;6;6;
51052;PMS5003;37093;37.716;-122.060;2023-07-16T03:36:41;10;8;
51052;PMS5003;37093;37.716;-122.060;2023-07-16T03:39:08;7;7;
51052;PMS5003;37093;37.716;-122.060;2023-07-16T03:41:37;10;8;
51052;PMS5003;37093;37.716;-122.060;2023-07-16T03:44:05;10;10;
51052;PMS5003;37093;37.716;-122.060;2023-07-16T03:46:34;7;7;
51052;PMS5003;37093;37.716;-122.060;2023-07-16T03:49:03;10;7;
51052;PMS5003;37093;37.716;-122.060;2023-07-16T03:51:34;12;7;
51052;PMS5003;37093;37.716;-122.060;2023-07-16T03:54:03;9;9;
51052;PMS5003;37093;37.716;-122.060;2023-07-16T03:56:31;10;9;
51052;PMS5003;37093;37.716;-122.060;2023-07-16T03:59:00;10;8;
51052;PMS5003;37093;37.716;-122.060;2023-07-16T04:01:28;10;8;
51052;PMS5003;37093;37.716;-122.060;2023-07-16T04:03:57;9;9;
51052;PMS5003;37093;37.716;-122.060;2023-07-16T04:06:25;11;9;
51052;PMS5003;37093;37.716;-122.060;2023-07-16T04:08:53;9;8;
51052;PMS5003;37093;37.716;-122.060;2023-07-16T04:11:22;13;10;
51052;PMS5003;37093;37.716;-122.060;2023-07-16T04:13:50;11;9;
51052;PMS5003;37093;37.716;-122.060;2023-07-16T04:16:19;9;7;
51052;PMS5003;37093;37.716;-122.060;2023-07-16T04:18:47;10;9;
51052;PMS5003;37093;37.716;-122.060;2023-07-16T04:21:15;11;6;
51052;PMS5003;37093;37.716;-122.060;2023-07-16T04:23:44;9;8;
51052;PMS5003;37093;37.716;-122.060;2023-07-16T04:26:12;9;9;
51052;PMS5003;37093;37.716;-122.060;2023-07-16T04:28:41;11;10;
51052;PMS5003;37093;37.716;-122.060;2023-07-16T04:31:09;9;8;
51052;PMS5003;37093;37.716;-122.060;2023-07-16T04:33:37;9;8;
51052;PMS5003;37093;37.716;-122.060;2023-07-16T04:36:05;10;9;
51052;PMS5003;37093;37.716;-122.060;2023-07-16T04:38:34;11;8;
51052;PMS5003;37093;37.716;-122.060;2023-07-16T04:41:02;10;10;
51052;PMS5003;37093;37.716;-122.060;2023-07-16T04:43:31;10;10;
51052;PMS5003;37093;37.716;-122.060;2023-07-16T04:45:59;9;9;
51052;PMS5003;37093;37.716;-122.060;2023-07-16T04:48:27;12;11;
51052;PMS5003;37093;37.716;-122.060;2023-07-16T04:50:55;10;9;
51052;PMS5003;37093;37.716;-122.060;2023-07-16T04:53:24;14;9;
51052;PMS5003;37093;37.716;-122.060;2023-07-16T04:55:52;11;11;
51052;PMS5003;37093;37.716;-122.060;2023-07-16T04:58:21;9;9;
51052;PMS5003;37093;37.716;-122.060;2023-07-16T05:00:49;9;7;
51052;PMS5003;37093;37.716;-122.060;2023-07-16T05:03:17;11;10;
51052;PMS5003;37093;37.716;-122.060;2023-07-16T05:05:46;14;8;
51052;PMS5003;37093;37.716;-122.060;2023-07-16T05:08:14;11;8;
51052;PMS5003;37093;37.716;-122.060;2023-07-16T05:10:42;11;8;
51052;PMS5003;37093;37.716;-122.060;2023-07-16T05:13:11;12;12;
51052;PMS5003;37093;37.716;-122.060;2023-07-16T05:15:39;10;10;
51052;PMS5003;37093;37.716;-122.060;2023-07-16T05:18:10;19;9;
51052;PMS5003;37093;37.716;-122.060;2023-07-16T05:20:38;14;11;
51052;PMS5003;37093;37.716;-122.060;2023-07-16T05:23:07;16;12;
51052;PMS5003;37093;37.716;-122.060;2023-07-16T05:25:36;15;13;
51052;PMS5003;37093;37.716;-122.060;2023-07-16T05:28:05;16;12;
51052;PMS5003;37093;37.716;-122.060;2023-07-16T05:30:33;17;13;
51052;PMS5003;37093;37.716;-122.060;2023-07-16T05:33:01;17;14;
51052;PMS5003;37093;37.716;-122.060;2023-07-16T05:35:29;17;14;
51052;PMS5003;37093;37.716;-122.060;2023-07-16T05:37:57;28;13;
51052;PMS5003;37093;37.716;-122.060;2023-07-16T05:40:26;22;14;
51052;PMS5003;37093;37.716;-122.060;2023-07-16T05:42:55;17;12;
51052;PMS5003;37093;37.716;-122.060;2023-07-16T05:45:23;17;14;
51052;PMS5003;37093;37.716;-122.060;2023-07-16T05:47:51;13;12;
51052;PMS5003;37093;37.716;-122.060;2023-07-16T05:50:19;16;14;
51052;PMS5003;37093;37.716;-122.060;2023-07-16T05:52:47;13;10;
51052;PMS5003;37093;37.716;-122.060;2023-07-16T05:55:15;17;11;
51052;PMS5003;37093;37.716;-122.060;2023-07-16T05:57:43;16;11;
51052;PMS5003;37093;37.716;-122.060;2023-07-16T06:00:11;27;13;
51052;PMS5003;37093;37.716;-122.060;2023-07-16T06:02:40;14;10;
51052;PMS5003;37093;37.716;-122.060;2023-07-16T06:05:09;15;13;
51052;PMS5003;37093;37.716;-122.060;2023-07-16T06:07:37;11;11;
51052;PMS5003;37093;37.716;-122.060;2023-07-16T06:10:06;14;12;
51052;PMS5003;37093;37.716;-122.060;2023-07-16T06:12:35;18;13;
51052;PMS5003;37093;37.716;-122.060;2023-07-16T06:15:03;11;9;
51052;PMS5003;37093;37.716;-122.060;2023-07-16T06:17:32;13;12;
51052;PMS5003;37093;37.716;-122.060;2023-07-16T06:20:01;16;12;
51052;PMS5003;37093;37.716;-122.060;2023-07-16T06:22:30;17;12;
51052;PMS5003;37093;37.716;-122.060;2023-07-16T06:24:58;12;11;
51052;PMS5003;37093;37.716;-122.060;2023-07-16T06:27:27;17;12;
51052;PMS5003;37093;37.716;-122.060;2023-07-16T06:29:55;13;11;
51052;PMS5003;37093;37.716;-122.060;2023-07-16T06:32:23;14;13;
51052;PMS5003;37093;37.716;-122.060;2023-07-16T06:34:51;15;10;
51052;PMS5003;37093;37.716;-122.060;2023-07-16T06:37:19;16;12;
51052;PMS5003;37093;37.716;-122.060;2023-07-16T06:39:48;16;13;
51052;PMS5003;37093;37.716;-122.060;2023-07-16T06:42:17;15;10;
51052;PMS5003;37093;37.716;-122.060;2023-07-16T06:44:45;11;8;
51052;PMS5003;37093;37.716;-122.060;2023-07-16T06:47:13;21;10;
51052;PMS5003;37093;37.716;-122.060;2023-07-16T06:49:42;14;13;
51052;PMS5003;37093;37.716;-122.060;2023-07-16T06:52:18;11;10;
51052;PMS5003;37093;37.716;-122.060;2023-07-16T06:54:47;13;10;
51052;PMS5003;37093;37.716;-122.060;2023-07-16T06:57:16;10;9;
51052;PMS5003;37093;37.716;-122.060;2023-07-16T06:59:44;15;13;
51052;PMS5003;37093;37.716;-122.060;2023-07-16T07:01:11;21;13;
51052;PMS5003;37093;37.716;-122.060;2023-07-16T07:03:40;12;12;
51052;PMS5003;37093;37.716;-122.060;2023-07-16T07:06:09;12;11;
51052;PMS5003;37093;37.716;-122.060;2023-07-16T07:08:38;11;10;
51052;PMS5003;37093;37.716;-122.060;2023-07-16T07:11:06;9;8;
51052;PMS5003;37093;37.716;-122.060;2023-07-16T07:13:34;11;9;
51052;PMS5003;37093;37.716;-122.060;2023-07-16T07:16:03;10;9;
51052;PMS5003;37093;37.716;-122.060;2023-07-16T07:18:31;9;8;
51052;PMS5003;37093;37.716;-122.060;2023-07-16T07:20:59;18;12;
51052;PMS5003;37093;37.716;-122.060;2023-07-16T07:23:28;15;13;
51052;PMS5003;37093;37.716;-122.060;2023-07-16T07:25:56;13;10;
51052;PMS5003;37093;37.716;-122.060;2023-07-16T07:28:25;11;8;
51052;PMS5003;37093;37.716;-122.060;2023-07-16T07:30:54;14;11;
51052;PMS5003;37093;37.716;-122.060;2023-07-16T07:33:22;15;11;
51052;PMS5003;37093;37.716;-122.060;2023-07-16T07:35:53;13;12;
51052;PMS5003;37093;37.716;-122.060;2023-07-16T07:38:21;11;7;
51052;PMS5003;37093;37.716;-122.060;2023-07-16T07:40:50;11;10;
51052;PMS5003;37093;37.716;-122.060;2023-07-16T07:43:18;14;12;
51052;PMS5003;37093;37.716;-122.060;2023-07-16T07:45:46;12;10;
51052;PMS5003;37093;37.716;-122.060;2023-07-16T07:48:15;13;13;
51052;PMS5003;37093;37.716;-122.060;2023-07-16T07:50:43;15;12;
51052;PMS5003;37093;37.716;-122.060;2023-07-16T07:53:14;8;8;
51052;PMS5003;37093;37.716;-122.060;2023-07-16T07:55:42;16;12;
51052;PMS5003;37093;37.716;-122.060;2023-07-16T08:12:22;16;12;
51052;PMS5003;37093;37.716;-122.060;2023-07-16T08:14:49;18;13;
51052;PMS5003;37093;37.716;-122.060;2023-07-16T08:17:16;12;11;
51052;PMS5003;37093;37.716;-122.060;2023-07-16T08:19:45;15;11;
51052;PMS5003;37093;37.716;-122.060;2023-07-16T08:22:13;18;14;
51052;PMS5003;37093;37.716;-122.060;2023-07-16T08:24:42;12;12;
51052;PMS5003;37093;37.716;-122.060;2023-07-16T08:27:10;12;10;
51052;PMS5003;37093;37.716;-122.060;2023-07-16T08:29:38;21;11;
51052;PMS5003;37093;37.716;-122.060;2023-07-16T08:32:07;13;13;
51052;PMS5003;37093;37.716;-122.060;2023-07-16T08:34:35;12;11;
51052;PMS5003;37093;37.716;-122.060;2023-07-16T08:37:04;14;11;
51052;PMS5003;37093;37.716;-122.060;2023-07-16T08:39:33;11;9;
51052;PMS5003;37093;37.716;-122.060;2023-07-16T08:42:02;15;12;
51052;PMS5003;37093;37.716;-122.060;2023-07-16T08:44:31;9;9;
51052;PMS5003;37093;37.716;-122.060;2023-07-16T08:46:59;16;13;
51052;PMS5003;37093;37.716;-122.060;2023-07-16T08:49:28;11;9;
51052;PMS5003;37093;37.716;-122.060;2023-07-16T08:51:58;14;12;
51052;PMS5003;37093;37.716;-122.060;2023-07-16T08:54:28;11;10;
51052;PMS5003;37093;37.716;-122.060;2023-07-16T08:56:56;15;10;
51052;PMS5003;37093;37.716;-122.060;2023-07-16T08:59:25;12;9;
51052;PMS5003;37093;37.716;-122.060;2023-07-16T09:01:54;15;13;
51052;PMS5003;37093;37.716;-122.060;2023-07-16T09:04:23;12;11;
51052;PMS5003;37093;37.716;-122.060;2023-07-16T09:06:52;24;12;
51052;PMS5003;37093;37.716;-122.060;2023-07-16T09:09:21;15;12;
51052;PMS5003;37093;37.716;-122.060;2023-07-16T09:11:50;10;10;
51052;PMS5003;37093;37.716;-122.060;2023-07-16T09:14:19;11;11;
51052;PMS5003;37093;37.716;-122.060;2023-07-16T09:16:48;12;11;
51052;PMS5003;37093;37.716;-122.060;2023-07-16T09:19:17;18;14;
51052;PMS5003;37093;37.716;-122.060;2023-07-16T09:21:47;12;9;
51052;PMS5003;37093;37.716;-122.060;2023-07-16T09:24:16;14;12;
51052;PMS5003;37093;37.716;-122.060;2023-07-16T09:26:48;14;12;
51052;PMS5003;37093;37.716;-122.060;2023-07-16T09:29:17;11;10;
51052;PMS5003;37093;37.716;-122.060;2023-07-16T09:31:54;16;13;
51052;PMS5003;37093;37.716;-122.060;2023-07-16T09:34:23;10;9;
51052;PMS5003;37093;37.716;-122.060;2023-07-16T09:36:55;15;12;
51052;PMS5003;37093;37.716;-122.060;2023-07-16T09:39:24;10;10;
51052;PMS5003;37093;37.716;-122.060;2023-07-16T09:41:53;11;10;
51052;PMS5003;37093;37.716;-122.060;2023-07-16T09:44:22;10;10;
51052;PMS5003;37093;37.716;-122.060;2023-07-16T09:46:51;10;8;
51052;PMS5003;37093;37.716;-122.060;2023-07-16T09:49:19;10;9;
51052;PMS5003;37093;37.716;-122.060;2023-07-16T09:51:48;15;12;
51052;PMS5003;37093;37.716;-122.060;2023-07-16T09:54:23;10;10;
51052;PMS5003;37093;37.716;-122.060;2023-07-16T09:56:54;11;11;
51052;PMS5003;37093;37.716;-122.060;2023-07-16T09:59:25;10;8;
51052;PMS5003;37093;37.716;-122.060;2023-07-16T10:01:55;16;10;
51052;PMS5003;37093;37.716;-122.060;2023-07-16T10:04:24;12;9;
51052;PMS5003;37093;37.716;-122.060;2023-07-16T10:06:53;17;10;
51052;PMS5003;37093;37.716;-122.060;2023-07-16T10:09:39;16;12;
51052;PMS5003;37093;37.716;-122.060;2023-07-16T10:12:14;12;10;
51052;PMS5003;37093;37.716;-122.060;2023-07-16T10:14:44;12;10;
51052;PMS5003;37093;37.716;-122.060;2023-07-16T10:17:14;11;10;
51052;PMS5003;37093;37.716;-122.060;2023-07-16T10:19:51;9;9;
51052;PMS5003;37093;37.716;-122.060;2023-07-16T10:22:31;14;10;
51052;PMS5003;37093;37.716;-122.060;2023-07-16T10:25:01;14;12;
51052;PMS5003;37093;37.716;-122.060;2023-07-16T10:27:31;14;11;
51052;PMS5003;37093;37.716;-122.060;2023-07-16T10:30:01;18;8;
51052;PMS5003;37093;37.716;-122.060;2023-07-16T10:32:32;11;11;
51052;PMS5003;37093;37.716;-122.060;2023-07-16T10:35:00;13;12;
51052;PMS5003;37093;37.716;-122.060;2023-07-16T10:37:31;10;10;
51052;PMS5003;37093;37.716;-122.060;2023-07-16T10:39:59;13;12;
51052;PMS5003;37093;37.716;-122.060;2023-07-16T10:42:29;17;12;
51052;PMS5003;37093;37.716;-122.060;2023-07-16T10:44:58;19;14;
51052;PMS5003;37093;37.716;-122.060;2023-07-16T10:47:29;21;11;
51052;PMS5003;37093;37.716;-122.060;2023-07-16T10:49:59;13;10;
51052;PMS5003;37093;37.716;-122.060;2023-07-16T10:52:30;12;10;
51052;PMS5003;37093;37.716;-122.060;2023-07-16T10:54:59;10;10;
51052;PMS5003;37093;37.716;-122.060;2023-07-16T10:57:27;13;11;
51052;PMS5003;37093;37.716;-122.060;2023-07-16T10:59:57;13;9;
51052;PMS5003;37093;37.716;-122.060;2023-07-16T11:02:25;12;9;
51052;PMS5003;37093;37.716;-122.060;2023-07-16T11:04:54;9;6;
51052;PMS5003;37093;37.716;-122.060;2023-07-16T11:07:22;19;8;
51052;PMS5003;37093;37.716;-122.060;2023-07-16T11:09:51;12;11;
51052;PMS5003;37093;37.716;-122.060;2023-07-16T11:12:21;12;11;
51052;PMS5003;37093;37.716;-122.060;2023-07-16T11:14:50;12;10;
51052;PMS5003;37093;37.716;-122.060;2023-07-16T11:17:20;10;10;
51052;PMS5003;37093;37.716;-122.060;2023-07-16T11:19:52;13;11;
51052;PMS5003;37093;37.716;-122.060;2023-07-16T11:22:24;10;9;
51052;PMS5003;37093;37.716;-122.060;2023-07-16T11:24:53;12;11;
51052;PMS5003;37093;37.716;-122.060;2023-07-16T11:27:22;22;10;
51052;PMS5003;37093;37.716;-122.060;2023-07-16T11:29:52;9;9;
51052;PMS5003;37093;37.716;-122.060;2023-07-16T11:32:30;10;10;
51052;PMS5003;37093;37.716;-122.060;2023-07-16T11:35:00;11;9;
51052;PMS5003;37093;37.716;-122.060;2023-07-16T11:37:30;22;11;
51052;PMS5003;37093;37.716;-122.060;2023-07-16T11:40:00;11;11;
51052;PMS5003;37093;37.716;-122.060;2023-07-16T11:42:30;21;12;
51052;PMS5003;37093;37.716;-122.060;2023-07-16T11:45:00;14;11;
51052;PMS5003;37093;37.716;-122.060;2023-07-16T11:47:29;24;12;
51052;PMS5003;37093;37.716;-122.060;2023-07-16T11:49:58;12;11;
51052;PMS5003;37093;37.716;-122.060;2023-07-16T11:52:27;12;11;
51052;PMS5003;37093;37.716;-122.060;2023-07-16T11:54:57;12;12;
51052;PMS5003;37093;37.716;-122.060;2023-07-16T11:57:26;10;9;
51052;PMS5003;37093;37.716;-122.060;2023-07-16T11:59:54;15;12;
51052;PMS5003;37093;37.716;-122.060;2023-07-16T12:02:24;20;12;
51052;PMS5003;37093;37.716;-122.060;2023-07-16T12:04:53;14;12;
51052;PMS5003;37093;37.716;-122.060;2023-07-16T12:07:30;22;15;
51052;PMS5003;37093;37.716;-122.060;2023-07-16T12:09:59;22;13;
51052;PMS5003;37093;37.716;-122.060;2023-07-16T12:12:27;14;13;
51052;PMS5003;37093;37.716;-122.060;2023-07-16T12:14:56;14;13;
51052;PMS5003;37093;37.716;-122.060;2023-07-16T12:17:24;13;13;
51052;PMS5003;37093;37.716;-122.060;2023-07-16T12:19:53;20;16;
51052;PMS5003;37093;37.716;-122.060;2023-07-16T12:22:21;24;15;
51052;PMS5003;37093;37.716;-122.060;2023-07-16T12:24:51;12;11;
51052;PMS5003;37093;37.716;-122.060;2023-07-16T12:27:20;17;13;
51052;PMS5003;37093;37.716;-122.060;2023-07-16T12:29:48;18;14;
51052;PMS5003;37093;37.716;-122.060;2023-07-16T12:32:17;23;13;
51052;PMS5003;37093;37.716;-122.060;2023-07-16T12:34:45;18;14;
51052;PMS5003;37093;37.716;-122.060;2023-07-16T12:37:14;17;13;
51052;PMS5003;37093;37.716;-122.060;2023-07-16T12:39:42;14;14;
51052;PMS5003;37093;37.716;-122.060;2023-07-16T12:42:10;13;12;
51052;PMS5003;37093;37.716;-122.060;2023-07-16T12:44:39;12;11;
51052;PMS5003;37093;37.716;-122.060;2023-07-16T12:47:08;13;9;
51052;PMS5003;37093;37.716;-122.060;2023-07-16T12:49:37;19;12;
51052;PMS5003;37093;37.716;-122.060;2023-07-16T12:52:05;16;13;
51052;PMS5003;37093;37.716;-122.060;2023-07-16T12:54:34;13;11;
51052;PMS5003;37093;37.716;-122.060;2023-07-16T12:57:02;17;15;
51052;PMS5003;37093;37.716;-122.060;2023-07-16T12:59:31;17;12;
51052;PMS5003;37093;37.716;-122.060;2023-07-16T13:01:59;15;13;
51052;PMS5003;37093;37.716;-122.060;2023-07-16T13:04:27;16;15;
51052;PMS5003;37093;37.716;-122.060;2023-07-16T13:06:56;11;10;
51052;PMS5003;37093;37.716;-122.060;2023-07-16T13:09:24;11;11;
51052;PMS5003;37093;37.716;-122.060;2023-07-16T13:11:52;14;12;
51052;PMS5003;37093;37.716;-122.060;2023-07-16T13:14:21;13;10;
51052;PMS5003;37093;37.716;-122.060;2023-07-16T13:16:49;11;10;
51052;PMS5003;37093;37.716;-122.060;2023-07-16T13:19:18;16;13;
51052;PMS5003;37093;37.716;-122.060;2023-07-16T13:21:46;12;12;
51052;PMS5003;37093;37.716;-122.060;2023-07-16T13:24:15;12;11;
51052;PMS5003;37093;37.716;-122.060;2023-07-16T13:26:43;13;12;
51052;PMS5003;37093;37.716;-122.060;2023-07-16T13:29:11;17;13;
51052;PMS5003;37093;37.716;-122.060;2023-07-16T13:31:39;16;12;
51052;PMS5003;37093;37.716;-122.060;2023-07-16T13:34:08;17;13;
51052;PMS5003;37093;37.716;-122.060;2023-07-16T13:36:36;12;11;
51052;PMS5003;37093;37.716;-122.060;2023-07-16T13:39:04;14;12;
51052;PMS5003;37093;37.716;-122.060;2023-07-16T13:41:32;14;13;
51052;PMS5003;37093;37.716;-122.060;2023-07-16T13:44:01;12;11;
51052;PMS5003;37093;37.716;-122.060;2023-07-16T13:46:29;13;11;
51052;PMS5003;37093;37.716;-122.060;2023-07-16T13:48:58;14;11;
51052;PMS5003;37093;37.716;-122.060;2023-07-16T13:51:27;13;11;
51052;PMS5003;37093;37.716;-122.060;2023-07-16T13:53:55;15;10;
51052;PMS5003;37093;37.716;-122.060;2023-07-16T13:56:24;13;12;
51052;PMS5003;37093;37.716;-122.060;2023-07-16T13:58:52;13;12;
51052;PMS5003;37093;37.716;-122.060;2023-07-16T14:01:21;24;13;
51052;PMS5003;37093;37.716;-122.060;2023-07-16T14:03:49;17;11;
51052;PMS5003;37093;37.716;-122.060;2023-07-16T14:06:17;14;11;
51052;PMS5003;37093;37.716;-122.060;2023-07-16T14:08:46;14;12;
51052;PMS5003;37093;37.716;-122.060;2023-07-16T14:11:14;15;13;
51052;PMS5003;37093;37.716;-122.060;2023-07-16T14:13:43;18;16;
51052;PMS5003;37093;37.716;-122.060;2023-07-16T14:16:11;16;13;
51052;PMS5003;37093;37.716;-122.060;2023-07-16T14:18:39;23;12;
51052;PMS5003;37093;37.716;-122.060;2023-07-16T14:21:08;15;12;
51052;PMS5003;37093;37.716;-122.060;2023-07-16T14:23:36;14;14;
51052;PMS5003;37093;37.716;-122.060;2023-07-16T14:26:04;25;15;
51052;PMS5003;37093;37.716;-122.060;2023-07-16T14:28:33;16;13;
51052;PMS5003;37093;37.716;-122.060;2023-07-16T14:31:01;15;9;
51052;PMS5003;37093;37.716;-122.060;2023-07-16T14:33:30;17;12;
51052;PMS5003;37093;37.716;-122.060;2023-07-16T14:35:58;15;13;
51052;PMS5003;37093;37.716;-122.060;2023-07-16T14:38:26;25;13;
51052;PMS5003;37093;37.716;-122.060;2023-07-16T14:40:55;27;15;
51052;PMS5003;37093;37.716;-122.060;2023-07-16T14:43:23;17;15;
51052;PMS5003;37093;37.716;-122.060;2023-07-16T14:45:51;13;12;
51052;PMS5003;37093;37.716;-122.060;2023-07-16T14:48:20;14;12;
51052;PMS5003;37093;37.716;-122.060;2023-07-16T14:50:49;12;11;
51052;PMS5003;37093;37.716;-122.060;2023-07-16T14:53:17;14;14;
51052;PMS5003;37093;37.716;-122.060;2023-07-16T14:55:47;14;12;
51052;PMS5003;37093;37.716;-122.060;2023-07-16T14:58:17;17;13;
51052;PMS5003;37093;37.716;-122.060;2023-07-16T15:00:46;16;12;
51052;PMS5003;37093;37.716;-122.060;2023-07-16T15:03:15;26;13;
51052;PMS5003;37093;37.716;-122.060;2023-07-16T15:05:43;24;13;
51052;PMS5003;37093;37.716;-122.060;2023-07-16T15:08:12;15;13;
51052;PMS5003;37093;37.716;-122.060;2023-07-16T15:10:40;14;13;
51052;PMS5003;37093;37.716;-122.060;2023-07-16T15:13:08;11;10;
51052;PMS5003;37093;37.716;-122.060;2023-07-16T15:15:36;17;12;
51052;PMS5003;37093;37.716;-122.060;2023-07-16T15:18:05;11;9;
51052;PMS5003;37093;37.716;-122.060;2023-07-16T15:20:33;15;12;
51052;PMS5003;37093;37.716;-122.060;2023-07-16T15:23:01;12;9;
51052;PMS5003;37093;37.716;-122.060;2023-07-16T15:25:30;13;12;
51052;PMS5003;37093;37.716;-122.060;2023-07-16T15:27:58;16;15;
51052;PMS5003;37093;37.716;-122.060;2023-07-16T15:30:26;12;12;
51052;PMS5003;37093;37.716;-122.060;2023-07-16T15:32:55;17;14;
51052;PMS5003;37093;37.716;-122.060;2023-07-16T15:35:23;13;12;
51052;PMS5003;37093;37.716;-122.060;2023-07-16T15:37:51;14;14;
51052;PMS5003;37093;37.716;-122.060;2023-07-16T15:40:19;15;14;
51052;PMS5003;37093;37.716;-122.060;2023-07-16T15:42:48;16;15;
51052;PMS5003;37093;37.716;-122.060;2023-07-16T15:45:16;20;12;
51052;PMS5003;37093;37.716;-122.060;2023-07-16T15:47:44;22;12;
51052;PMS5003;37093;37.716;-122.060;2023-07-16T15:50:13;14;13;
51052;PMS5003;37093;37.716;-122.060;2023-07-16T15:52:42;11;10;
51052;PMS5003;37093;37.716;-122.060;2023-07-16T15:55:17;16;15;
51052;PMS5003;37093;37.716;-122.060;2023-07-16T15:57:46;13;12;
51052;PMS5003;37093;37.716;-122.060;2023-07-16T16:00:14;20;15;
51052;PMS5003;37093;37.716;-122.060;2023-07-16T16:02:44;21;19;
51052;PMS5003;37093;37.716;-122.060;2023-07-16T16:05:13;15;14;